Flight Track Log - Related Links

Times and Time Zones

All times are in EST time to prevent confusion due to time zone crossing. See the AFL150 flight status page for this flight to view local times or setup timezone preferences in your user account.

Time Position Orientation Groundspeed Altitude Reporting Facility
EST Latitude Longitude Course Direction KTS MPH feet Rate Location/Type
Tue 05:06:00 AM 56.0700 37.0943 307° West  Level Estimated
Tue 05:07:00 AM 56.1424 36.9187 307° West  Level Estimated
Tue 05:08:00 AM 56.2145 36.7425 306° West  Level Estimated
Tue 05:09:00 AM 56.2865 36.5656 306° West  Level Estimated
Tue 05:10:00 AM 56.3581 36.3880 306° West  Level Estimated
Tue 05:11:00 AM 56.4295 36.2098 306° West  Level Estimated
Tue 05:12:00 AM 56.5007 36.0309 306° West  Level Estimated
Tue 05:13:00 AM 56.5716 35.8513 306° West  Level Estimated
Tue 05:14:00 AM 56.6422 35.6710 306° West  Level Estimated
Tue 05:15:00 AM 56.7126 35.4901 305° West  Level Estimated
Tue 05:16:00 AM 56.7827 35.3085 305° West  Level Estimated
Tue 05:17:00 AM 56.8525 35.1262 305° West  Level Estimated
Tue 05:18:00 AM 56.9221 34.9433 305° West  Level Estimated
Tue 05:19:00 AM 56.9914 34.7596 305° West  Level Estimated
Tue 05:20:00 AM 57.0605 34.5753 305° West  Level Estimated
Tue 05:21:00 AM 57.1292 34.3903 304° West  Level Estimated
Tue 05:22:00 AM 57.1977 34.2046 304° West  Level Estimated
Tue 05:23:00 AM 57.2659 34.0182 304° West  Level Estimated
Tue 05:24:00 AM 57.3339 33.8311 304° West  Level Estimated
Tue 05:25:00 AM 57.4015 33.6434 304° West  Level Estimated
Tue 05:26:00 AM 57.4689 33.4549 304° West  Level Estimated
Tue 05:27:00 AM 57.5360 33.2657 304° West  Level Estimated
Tue 05:28:00 AM 57.6028 33.0759 303° West  Level Estimated
Tue 05:29:00 AM 57.6694 32.8853 303° West  Level Estimated
Tue 05:30:00 AM 57.7356 32.6941 303° West  Level Estimated
Tue 05:30:10 AM 56.4699 32.1436 303° West 484 557 36,000  Level FlightAware ADS-B
Tue 05:31:20 AM 56.4926 31.8640 278° West 485 558 36,000  Level FlightAware ADS-B
Tue 05:32:09 AM 56.5081 31.6701 278° West 485 558 36,000  Level FlightAware ADS-B
Tue 05:33:10 AM 56.5269 31.4281 278° West 485 558 36,000  Level FlightAware ADS-B
Tue 05:34:10 AM 56.5578 31.1914 283° West 489 563 36,000  Level FlightAware ADS-B
Tue 05:35:10 AM 56.6148 30.9624 294° West 493 567 36,000  Level FlightAware ADS-B
Tue 05:36:10 AM 56.6940 30.7618 306° West 494 568 36,000  Level FlightAware ADS-B
Tue 05:37:10 AM 56.7729 30.5665 306° West 492 566 36,000  Level FlightAware ADS-B
Tue 05:38:10 AM 56.8529 30.3576 305° West 492 566 36,000  Level FlightAware ADS-B
Tue 05:39:10 AM 56.9282 30.1530 304° West 491 565 36,000  Level FlightAware ADS-B
Tue 05:40:09 AM 57.0026 29.9489 304° West 490 564 36,000  Level FlightAware ADS-B
Tue 05:41:10 AM 57.0787 29.7383 304° West 489 563 36,000  Level FlightAware ADS-B
Tue 05:42:09 AM 57.1496 29.5403 304° West 490 564 36,000  Level FlightAware ADS-B
Tue 05:43:10 AM 57.2274 29.3213 303° West 489 563 36,000  Level FlightAware ADS-B
Tue 05:44:10 AM 57.3007 29.1135 303° West 489 563 36,000  Level FlightAware ADS-B
Tue 05:45:07 AM 57.3706 28.9136 303° West 488 562 36,000  Level FlightAware ADS-B
Tue 05:46:10 AM 57.4475 28.6917 303° West 486 559 36,000  Level FlightAware ADS-B
Tue 05:47:10 AM 57.5190 28.4837 303° West 487 560 36,000  Level FlightAware ADS-B
Tue 05:48:07 AM 57.5802 28.3039 302° West 486 559 36,000  Level FlightAware ADS-B
Tue 05:49:08 AM 57.6590 28.0707 302° West 484 557 36,000  Level FlightAware ADS-B
Tue 05:50:09 AM 57.7332 27.8493 302° West 483 556 36,000  Level FlightAware ADS-B
Tue 05:51:10 AM 57.8016 27.6435 302° West 481 554 36,000  Level FlightAware ADS-B
Tue 05:52:10 AM 57.8612 27.4152 296° West 476 548 36,000  Level FlightAware ADS-B
Tue 05:53:10 AM 57.9077 27.1802 290° West 477 549 36,000  Level FlightAware ADS-B
Tue 05:54:10 AM 57.9540 26.9486 291° West 476 548 36,000  Level FlightAware ADS-B
Tue 05:55:10 AM 58.0001 26.7164 291° West 476 548 36,000  Level FlightAware ADS-B
Tue 05:56:10 AM 58.0453 26.4864 290° West 475 547 36,000  Level FlightAware ADS-B
Tue 05:57:10 AM 58.0903 26.2537 290° West 476 548 36,000  Level FlightAware ADS-B
Tue 05:58:10 AM 58.1352 26.0187 290° West 475 547 36,000  Level FlightAware ADS-B
Tue 05:59:10 AM 58.1799 25.7824 290° West 475 547 36,000  Level FlightAware ADS-B
Tue 06:00:14 AM 58.2268 25.5309 290° West 475 547 36,000  Level FlightAware ADS-B
Tue 06:01:29 AM 58.2810 25.2369 289° West 476 548 36,000  Level FlightAware ADS-B
Tue 06:02:30 AM 58.3239 25.0003 289° West 477 549 36,000  Level FlightAware ADS-B
Tue 06:03:30 AM 58.3654 24.7684 289° West 478 550 36,000  Level FlightAware ADS-B
Tue 06:04:30 AM 58.4081 24.5274 289° West 478 550 36,000  Level FlightAware ADS-B
Tue 06:05:20 AM 58.4415 24.3223 287° West 476 548 36,000  Level FlightAware ADS-B
Tue 06:06:33 AM 58.4849 24.0286 286° West 476 548 36,000  Level FlightAware ADS-B
Tue 06:18:02 AM 58.8872 21.2178 294° West 479 551 36,000  Level FlightAware ADS-B
Tue 06:18:33 AM 58.9067 21.1010 288° West 478 550 36,000  Level FlightAware ADS-B
Tue 06:19:40 AM 58.9507 20.8342 288° West 478 550 36,000  Level FlightAware ADS-B
Tue 06:20:19 AM 58.9789 20.6605 288° West 479 551 36,000  Level FlightAware ADS-B
Tue 06:21:07 AM 59.0099 20.4673 287° West 479 551 36,000  Level FlightAware ADS-B
Tue 06:21:47 AM 59.0360 20.3035 287° West 477 549 36,000  Level FlightAware ADS-B
Tue 06:22:27 AM 59.0617 20.1399 287° West 477 549 36,000  Level FlightAware ADS-B
Tue 06:23:07 AM 59.0871 19.9770 287° West 475 547 36,000  Level FlightAware ADS-B
Tue 06:23:49 AM 59.1124 19.8134 287° West 476 548 36,000  Level FlightAware ADS-B
Tue 06:24:29 AM 59.1378 19.6474 287° West 476 548 36,000  Level FlightAware ADS-B
Tue 06:25:11 AM 59.1649 19.4693 287° West 475 547 36,000  Level FlightAware ADS-B
Tue 06:25:51 AM 59.1894 19.3061 286° West 475 547 36,000  Level FlightAware ADS-B
Tue 06:26:31 AM 59.2137 19.1429 286° West 474 545 36,000  Level FlightAware ADS-B
Tue 06:27:11 AM 59.2380 18.9771 286° West 472 543 36,000  Level FlightAware ADS-B
Tue 06:27:51 AM 59.2619 18.8134 286° West 471 542 36,000  Level FlightAware ADS-B
Tue 06:28:31 AM 59.2829 18.6681 286° West 471 542 36,000  Level FlightAware ADS-B
Tue 06:29:11 AM 59.3074 18.4960 286° West 469 540 36,000  Level FlightAware ADS-B
Tue 06:29:51 AM 59.3308 18.3306 286° West 470 541 36,000  Level FlightAware ADS-B
Tue 06:30:31 AM 59.3543 18.1624 285° West 469 540 36,000  Level FlightAware ADS-B
Tue 06:31:11 AM 59.3766 18.0011 285° West 469 540 36,000  Level FlightAware ADS-B
Tue 06:31:51 AM 59.3993 17.8355 285° West 467 537 36,000  Level FlightAware ADS-B
Tue 06:32:32 AM 59.4198 17.6842 285° West 466 536 36,000  Level FlightAware ADS-B
Tue 06:33:12 AM 59.4438 17.5054 285° West 464 534 36,000  Level FlightAware ADS-B
Tue 06:33:52 AM 59.4655 17.3414 285° West 464 534 36,000  Level FlightAware ADS-B
Tue 06:34:32 AM 59.4858 17.1868 285° West 464 534 36,000  Level FlightAware ADS-B
Tue 06:35:12 AM 59.5077 17.0184 284° West 463 533 36,000  Level FlightAware ADS-B
Tue 06:35:52 AM 59.5286 16.8557 284° West 463 533 36,000  Level FlightAware ADS-B
Tue 06:36:32 AM 59.5493 16.6928 284° West 461 531 36,000  Level FlightAware ADS-B
Tue 06:37:12 AM 59.5691 16.5355 284° West 459 528 36,000  Level FlightAware ADS-B
Tue 06:37:52 AM 59.5898 16.3688 284° West 459 528 36,000  Level FlightAware ADS-B
Tue 06:38:32 AM 59.6097 16.2070 284° West 458 527 36,000  Level FlightAware ADS-B
Tue 06:39:10 AM 59.6288 16.0499 284° West 458 527 36,000  Level FlightAware ADS-B
Tue 06:39:51 AM 59.6476 15.8936 283° West 456 525 36,000  Level FlightAware ADS-B
Tue 06:40:28 AM 59.6661 15.7383 283° West 456 525 36,000  Level FlightAware ADS-B
Tue 06:42:00 AM 59.7257 15.3876 289° West  Level Estimated
Tue 06:43:00 AM 59.7641 15.1582 288° West  Level Estimated
Tue 06:44:00 AM 59.8021 14.9283 288° West  Level Estimated
Tue 06:45:00 AM 59.8397 14.6979 288° West  Level Estimated
Tue 06:46:00 AM 59.8769 14.4670 288° West  Level Estimated
Tue 06:47:00 AM 59.9137 14.2355 288° West  Level Estimated
Tue 06:48:00 AM 59.9500 14.0035 287° West  Level Estimated
Tue 06:49:00 AM 59.9860 13.7711 287° West  Level Estimated
Tue 06:50:00 AM 60.0216 13.5381 287° West  Level Estimated
Tue 06:51:00 AM 60.0567 13.3046 287° West  Level Estimated
Tue 06:52:00 AM 60.0914 13.0706 287° West  Level Estimated
Tue 06:53:00 AM 60.1258 12.8362 286° West  Level Estimated
Tue 06:54:00 AM 60.1597 12.6012 286° West  Level Estimated
Tue 06:55:00 AM 60.1932 12.3658 286° West  Level Estimated
Tue 06:56:00 AM 60.2262 12.1299 286° West  Level Estimated
Tue 06:57:00 AM 60.2589 11.8935 286° West  Level Estimated
Tue 06:58:00 AM 60.2911 11.6566 285° West  Level Estimated
Tue 06:59:00 AM 60.3229 11.4193 285° West  Level Estimated
Tue 07:00:00 AM 60.3543 11.1816 285° West  Level Estimated
Tue 07:01:00 AM 60.3853 10.9433 285° West  Level Estimated
Tue 07:02:00 AM 60.4158 10.7047 285° West  Level Estimated
Tue 07:03:00 AM 60.4459 10.4655 284° West  Level Estimated
Tue 07:04:00 AM 60.4756 10.2260 284° West  Level Estimated
Tue 07:05:00 AM 60.5048 9.9860 284° West  Level Estimated
Tue 07:06:00 AM 60.5337 9.7455 284° West  Level Estimated
Tue 07:07:00 AM 60.5620 9.5047 284° West  Level Estimated
Tue 07:08:00 AM 60.5900 9.2634 283° West  Level Estimated
Tue 07:09:00 AM 60.6175 9.0217 283° West  Level Estimated
Tue 07:10:00 AM 60.6446 8.7796 283° West  Level Estimated
Tue 07:11:00 AM 60.6712 8.5371 283° West  Level Estimated
Tue 07:12:00 AM 60.6974 8.2942 283° West  Level Estimated
Tue 07:13:00 AM 60.7232 8.0509 282° West  Level Estimated
Tue 07:14:00 AM 60.7485 7.8072 282° West  Level Estimated
Tue 07:15:00 AM 60.7734 7.5632 282° West  Level Estimated
Tue 07:16:00 AM 60.7978 7.3187 282° West  Level Estimated
Tue 07:17:00 AM 60.8218 7.0739 281° West  Level Estimated
Tue 07:18:00 AM 60.8453 6.8287 281° West  Level Estimated
Tue 07:19:00 AM 60.8684 6.5832 281° West  Level Estimated
Tue 07:20:00 AM 60.8911 6.3373 281° West  Level Estimated
Tue 07:21:00 AM 60.9133 6.0911 281° West  Level Estimated
Tue 07:22:00 AM 60.9350 5.8445 280° West  Level Estimated
Tue 07:23:00 AM 60.9563 5.5976 280° West  Level Estimated
Tue 07:24:00 AM 60.9772 5.3504 280° West  Level Estimated
Tue 07:25:00 AM 60.9976 5.1028 280° West  Level Estimated
Tue 07:26:00 AM 61.0175 4.8550 280° West  Level Estimated
Tue 07:27:00 AM 61.0370 4.6068 279° West  Level Estimated
Tue 07:28:00 AM 61.0560 4.3583 279° West  Level Estimated
Tue 07:29:00 AM 61.0746 4.1096 279° West  Level Estimated
Tue 07:30:00 AM 61.0927 3.8605 279° West  Level Estimated
Tue 07:31:00 AM 61.1104 3.6112 278° West  Level Estimated
Tue 07:32:00 AM 61.1275 3.3615 278° West  Level Estimated
Tue 07:33:00 AM 61.1443 3.1117 278° West  Level Estimated
Tue 07:34:00 AM 61.1605 2.8615 278° West  Level Estimated
Tue 07:35:00 AM 61.1763 2.6111 278° West  Level Estimated
Tue 07:36:00 AM 61.1917 2.3605 277° West  Level Estimated
Tue 07:37:00 AM 61.2066 2.1096 277° West  Level Estimated
Tue 07:38:00 AM 61.2210 1.8585 277° West  Level Estimated
Tue 07:39:00 AM 61.2350 1.6071 277° West  Level Estimated
Tue 07:40:00 AM 61.2484 1.3555 276° West  Level Estimated
Tue 07:41:00 AM 61.2615 1.1038 276° West  Level Estimated
Tue 07:42:00 AM 61.2740 0.8518 276° West  Level Estimated
Tue 07:43:00 AM 61.2861 0.5996 276° West  Level Estimated
Tue 07:44:00 AM 61.2977 0.3472 276° West  Level Estimated
Tue 07:45:00 AM 61.3089 0.0947 275° West  Level Estimated
Tue 07:46:00 AM 61.3196 -0.1581 275° West  Level Estimated
Tue 07:47:00 AM 61.3298 -0.4110 275° West  Level Estimated
Tue 07:48:00 AM 61.3395 -0.6640 275° West  Level Estimated
Tue 07:49:00 AM 61.3488 -0.9172 274° West  Level Estimated
Tue 07:50:00 AM 61.3576 -1.1706 274° West  Level Estimated
Tue 07:51:00 AM 61.3659 -1.4241 274° West  Level Estimated
Tue 07:52:00 AM 61.3738 -1.6777 274° West  Level Estimated
Tue 07:53:00 AM 61.3811 -1.9315 274° West  Level Estimated
Tue 07:54:00 AM 61.3881 -2.1853 273° West  Level Estimated
Tue 07:55:00 AM 61.3945 -2.4393 273° West  Level Estimated
Tue 07:56:00 AM 61.4005 -2.6934 273° West  Level Estimated
Tue 07:57:00 AM 61.4060 -2.9476 273° West  Level Estimated
Tue 07:58:00 AM 61.4110 -3.2018 272° West  Level Estimated
Tue 07:59:00 AM 61.4155 -3.4562 272° West  Level Estimated
Tue 08:00:00 AM 61.4196 -3.7106 272° West  Level Estimated
Tue 08:01:00 AM 61.4232 -3.9650 272° West  Level Estimated
Tue 08:02:00 AM 61.4263 -4.2196 272° West  Level Estimated
Tue 08:03:00 AM 61.4289 -4.4741 271° West  Level Estimated
Tue 08:04:00 AM 61.4311 -4.7288 271° West  Level Estimated
Tue 08:05:00 AM 61.4328 -4.9834 271° West  Level Estimated
Tue 08:06:00 AM 61.4340 -5.2381 271° West  Level Estimated
Tue 08:07:00 AM 61.4348 -5.4927 270° West  Level Estimated
Tue 08:08:00 AM 61.4350 -5.7474 270° West  Level Estimated
Tue 08:09:00 AM 61.4348 -6.0021 270° West  Level Estimated
Tue 08:10:00 AM 61.4341 -6.2568 270° West  Level Estimated
Tue 08:11:00 AM 61.4330 -6.5115 270° West  Level Estimated
Tue 08:12:00 AM 61.4314 -6.7661 269° West  Level Estimated
Tue 08:13:00 AM 61.4292 -7.0207 269° West  Level Estimated
Tue 08:14:00 AM 61.4267 -7.2753 269° West  Level Estimated
Tue 08:15:00 AM 61.4236 -7.5298 269° West  Level Estimated
Tue 08:16:00 AM 61.4201 -7.7843 268° West  Level Estimated
Tue 08:17:00 AM 61.4161 -8.0387 268° West  Level Estimated
Tue 08:18:00 AM 61.4116 -8.2931 268° West  Level Estimated
Tue 08:19:00 AM 61.4066 -8.5474 268° West  Level Estimated
Tue 08:20:00 AM 61.4012 -8.8015 268° West  Level Estimated
Tue 08:21:00 AM 61.3953 -9.0556 267° West  Level Estimated
Tue 08:22:00 AM 61.3889 -9.3096 267° West  Level Estimated
Tue 08:23:00 AM 61.3820 -9.5635 267° West  Level Estimated
Tue 08:24:00 AM 61.3747 -9.8173 267° West  Level Estimated
Tue 08:25:00 AM 61.3669 -10.0709 266° West  Level Estimated
Tue 08:26:00 AM 61.3587 -10.3244 266° West  Level Estimated
Tue 08:27:00 AM 61.3499 -10.5778 266° West  Level Estimated
Tue 08:28:00 AM 61.3407 -10.8310 266° West  Level Estimated
Tue 08:29:00 AM 61.3310 -11.0841 266° West  Level Estimated
Tue 08:30:00 AM 61.3209 -11.3371 265° West  Level Estimated
Tue 08:31:00 AM 61.3103 -11.5898 265° West  Level Estimated
Tue 08:32:00 AM 61.2992 -11.8424 265° West  Level Estimated
Tue 08:33:00 AM 61.2876 -12.0948 265° West  Level Estimated
Tue 08:34:00 AM 61.2756 -12.3470 264° West  Level Estimated
Tue 08:35:00 AM 61.2631 -12.5990 264° West  Level Estimated
Tue 08:36:00 AM 61.2501 -12.8508 264° West  Level Estimated
Tue 08:37:00 AM 61.2367 -13.1024 264° West  Level Estimated
Tue 08:38:00 AM 61.2228 -13.3538 264° West  Level Estimated
Tue 08:39:00 AM 61.2084 -13.6049 263° West  Level Estimated
Tue 08:40:00 AM 61.1936 -13.8559 263° West  Level Estimated
Tue 08:41:00 AM 61.1783 -14.1065 263° West  Level Estimated
Tue 08:42:00 AM 61.1626 -14.3570 263° West  Level Estimated
Tue 08:43:00 AM 61.1464 -14.6071 262° West  Level Estimated
Tue 08:44:00 AM 61.1297 -14.8571 262° West  Level Estimated
Tue 08:45:00 AM 61.1126 -15.1067 262° West  Level Estimated
Tue 08:46:00 AM 61.0950 -15.3561 262° West  Level Estimated
Tue 08:47:00 AM 61.0769 -15.6052 262° West  Level Estimated
Tue 08:48:00 AM 61.0584 -15.8540 261° West  Level Estimated
Tue 08:49:00 AM 61.0394 -16.1025 261° West  Level Estimated
Tue 08:50:00 AM 61.0200 -16.3507 261° West  Level Estimated
Tue 08:51:00 AM 61.0001 -16.5986 261° West  Level Estimated
Tue 08:52:00 AM 60.9798 -16.8462 260° West  Level Estimated
Tue 08:53:00 AM 60.9590 -17.0935 260° West  Level Estimated
Tue 08:54:00 AM 60.9378 -17.3404 260° West  Level Estimated
Tue 08:55:00 AM 60.9161 -17.5870 260° West  Level Estimated
Tue 08:56:00 AM 60.8940 -17.8333 260° West  Level Estimated
Tue 08:57:00 AM 60.8714 -18.0792 259° West  Level Estimated
Tue 08:58:00 AM 60.8483 -18.3248 259° West  Level Estimated
Tue 08:59:00 AM 60.8248 -18.5700 259° West  Level Estimated
Tue 09:00:00 AM 60.8009 -18.8149 259° West  Level Estimated
Tue 09:01:00 AM 60.7765 -19.0594 259° West  Level Estimated
Tue 09:02:00 AM 60.7517 -19.3035 258° West  Level Estimated
Tue 09:03:00 AM 60.7264 -19.5472 258° West  Level Estimated
Tue 09:04:00 AM 60.7007 -19.7906 258° West  Level Estimated
Tue 09:05:00 AM 60.6746 -20.0335 258° West  Level Estimated
Tue 09:06:00 AM 60.6480 -20.2761 257° West  Level Estimated
Tue 09:07:00 AM 60.6210 -20.5182 257° West  Level Estimated
Tue 09:08:00 AM 60.5935 -20.7600 257° West  Level Estimated
Tue 09:09:00 AM 60.5657 -21.0013 257° West  Level Estimated
Tue 09:10:00 AM 60.5373 -21.2422 257° West  Level Estimated
Tue 09:11:00 AM 60.5086 -21.4827 256° West  Level Estimated
Tue 09:12:00 AM 60.4794 -21.7227 256° West  Level Estimated
Tue 09:13:00 AM 60.4497 -21.9624 256° West  Level Estimated
Tue 09:14:00 AM 60.4197 -22.2015 256° West  Level Estimated
Tue 09:15:00 AM 60.3892 -22.4403 256° West  Level Estimated
Tue 09:16:00 AM 60.3583 -22.6786 255° West  Level Estimated
Tue 09:17:00 AM 60.3270 -22.9164 255° West  Level Estimated
Tue 09:18:00 AM 60.2952 -23.1538 255° West  Level Estimated
Tue 09:19:00 AM 60.2630 -23.3907 255° West  Level Estimated
Tue 09:20:00 AM 60.2304 -23.6271 255° West  Level Estimated
Tue 09:21:00 AM 60.1974 -23.8631 254° West  Level Estimated
Tue 09:22:00 AM 60.1640 -24.0986 254° West  Level Estimated
Tue 09:23:00 AM 60.1301 -24.3336 254° West  Level Estimated
Tue 09:24:00 AM 60.0959 -24.5681 254° West  Level Estimated
Tue 09:25:00 AM 60.0612 -24.8021 254° West  Level Estimated
Tue 09:26:00 AM 60.0261 -25.0357 253° West  Level Estimated
Tue 09:27:00 AM 59.9906 -25.2687 253° West  Level Estimated
Tue 09:28:00 AM 59.9547 -25.5013 253° West  Level Estimated
Tue 09:29:00 AM 59.9183 -25.7333 253° West  Level Estimated
Tue 09:30:00 AM 59.8816 -25.9648 253° West  Level Estimated
Tue 09:31:00 AM 59.8445 -26.1958 252° West  Level Estimated
Tue 09:32:00 AM 59.8069 -26.4263 252° West  Level Estimated
Tue 09:33:00 AM 59.7690 -26.6563 252° West  Level Estimated
Tue 09:34:00 AM 59.7306 -26.8857 252° West  Level Estimated
Tue 09:35:00 AM 59.6919 -27.1146 252° West  Level Estimated
Tue 09:36:00 AM 59.6527 -27.3430 251° West  Level Estimated
Tue 09:37:00 AM 59.6132 -27.5709 251° West  Level Estimated
Tue 09:38:00 AM 59.5733 -27.7982 251° West  Level Estimated
Tue 09:39:00 AM 59.5330 -28.0249 251° West  Level Estimated
Tue 09:40:00 AM 59.4922 -28.2512 251° West  Level Estimated
Tue 09:41:00 AM 59.4511 -28.4768 250° West  Level Estimated
Tue 09:42:00 AM 59.4097 -28.7020 250° West  Level Estimated
Tue 09:43:00 AM 59.3678 -28.9265 250° West  Level Estimated
Tue 09:44:00 AM 59.3255 -29.1506 250° West  Level Estimated
Tue 09:45:00 AM 59.2829 -29.3740 250° West  Level Estimated
Tue 09:46:00 AM 59.2398 -29.5969 249° West  Level Estimated
Tue 09:47:00 AM 59.1964 -29.8193 249° West  Level Estimated
Tue 09:48:00 AM 59.1526 -30.0410 249° West  Level Estimated
Tue 09:49:00 AM 59.1085 -30.2622 249° West  Level Estimated
Tue 09:50:00 AM 59.0639 -30.4828 249° West  Level Estimated
Tue 09:51:00 AM 59.0190 -30.7029 248° West  Level Estimated
Tue 09:52:00 AM 58.9737 -30.9223 248° West  Level Estimated
Tue 09:53:00 AM 58.9281 -31.1412 248° West  Level Estimated
Tue 09:54:00 AM 58.8821 -31.3595 248° West  Level Estimated
Tue 09:55:00 AM 58.8357 -31.5773 248° West  Level Estimated
Tue 09:56:00 AM 58.7889 -31.7944 248° West  Level Estimated
Tue 09:57:00 AM 58.7418 -32.0110 247° West  Level Estimated
Tue 09:58:00 AM 58.6943 -32.2270 247° West  Level Estimated
Tue 09:59:00 AM 58.6465 -32.4423 247° West  Level Estimated
Tue 10:00:00 AM 58.5983 -32.6571 247° West  Level Estimated
Tue 10:01:00 AM 58.5497 -32.8713 247° West  Level Estimated
Tue 10:02:00 AM 58.5008 -33.0849 246° West  Level Estimated
Tue 10:03:00 AM 58.4515 -33.2979 246° West  Level Estimated
Tue 10:04:00 AM 58.4019 -33.5103 246° West  Level Estimated
Tue 10:05:00 AM 58.3519 -33.7221 246° West  Level Estimated
Tue 10:06:00 AM 58.3016 -33.9334 246° West  Level Estimated
Tue 10:07:00 AM 58.2509 -34.1440 246° West  Level Estimated
Tue 10:08:00 AM 58.1999 -34.3540 245° Southwest  Level Estimated
Tue 10:09:00 AM 58.1486 -34.5634 245° Southwest  Level Estimated
Tue 10:10:00 AM 58.0969 -34.7722 245° Southwest  Level Estimated
Tue 10:11:00 AM 58.0448 -34.9804 245° Southwest  Level Estimated
Tue 10:12:00 AM 57.9925 -35.1879 245° Southwest  Level Estimated
Tue 10:13:00 AM 57.9398 -35.3949 244° Southwest  Level Estimated
Tue 10:14:00 AM 57.8867 -35.6013 244° Southwest  Level Estimated
Tue 10:15:00 AM 57.8333 -35.8070 244° Southwest  Level Estimated
Tue 10:16:00 AM 57.7796 -36.0121 244° Southwest  Level Estimated
Tue 10:17:00 AM 57.7256 -36.2167 244° Southwest  Level Estimated
Tue 10:18:00 AM 57.6712 -36.4206 244° Southwest  Level Estimated
Tue 10:19:00 AM 57.6165 -36.6239 243° Southwest  Level Estimated
Tue 10:20:00 AM 57.5615 -36.8266 243° Southwest  Level Estimated
Tue 10:21:00 AM 57.5061 -37.0287 243° Southwest  Level Estimated
Tue 10:22:00 AM 57.4504 -37.2301 243° Southwest  Level Estimated
Tue 10:23:00 AM 57.3944 -37.4310 243° Southwest  Level Estimated
Tue 10:24:00 AM 57.3381 -37.6312 243° Southwest  Level Estimated
Tue 10:25:00 AM 57.2815 -37.8309 242° Southwest  Level Estimated
Tue 10:26:00 AM 57.2246 -38.0299 242° Southwest  Level Estimated
Tue 10:27:00 AM 57.1673 -38.2283 242° Southwest  Level Estimated
Tue 10:28:00 AM 57.1097 -38.4260 242° Southwest  Level Estimated
Tue 10:29:00 AM 57.0518 -38.6232 242° Southwest  Level Estimated
Tue 10:30:00 AM 56.9937 -38.8198 242° Southwest  Level Estimated
Tue 10:31:00 AM 56.9352 -39.0157 241° Southwest  Level Estimated
Tue 10:32:00 AM 56.8764 -39.2110 241° Southwest  Level Estimated
Tue 10:33:00 AM 56.8173 -39.4057 241° Southwest  Level Estimated
Tue 10:34:00 AM 56.7579 -39.5998 241° Southwest  Level Estimated
Tue 10:35:00 AM 56.6981 -39.7933 241° Southwest  Level Estimated
Tue 10:36:00 AM 56.6381 -39.9861 241° Southwest  Level Estimated
Tue 10:37:00 AM 56.5778 -40.1784 240° Southwest  Level Estimated
Tue 10:38:00 AM 56.5172 -40.3700 240° Southwest  Level Estimated
Tue 10:39:00 AM 56.4563 -40.5610 240° Southwest  Level Estimated
Tue 10:40:00 AM 56.3952 -40.7514 240° Southwest  Level Estimated
Tue 10:41:00 AM 56.3337 -40.9412 240° Southwest  Level Estimated
Tue 10:42:00 AM 56.2719 -41.1304 240° Southwest  Level Estimated
Tue 10:43:00 AM 56.2099 -41.3190 239° Southwest  Level Estimated
Tue 10:44:00 AM 56.1475 -41.5069 239° Southwest  Level Estimated
Tue 10:45:00 AM 56.0849 -41.6943 239° Southwest  Level Estimated
Tue 10:46:00 AM 56.0220 -41.8810 239° Southwest  Level Estimated
Tue 10:47:00 AM 55.9588 -42.0671 239° Southwest  Level Estimated
Tue 10:48:00 AM 55.8953 -42.2527 239° Southwest  Level Estimated
Tue 10:49:00 AM 55.8316 -42.4376 239° Southwest  Level Estimated
Tue 10:50:00 AM 55.7676 -42.6219 238° Southwest  Level Estimated
Tue 10:51:00 AM 55.7033 -42.8056 238° Southwest  Level Estimated
Tue 10:52:00 AM 55.6387 -42.9887 238° Southwest  Level Estimated
Tue 10:53:00 AM 55.5739 -43.1712 238° Southwest  Level Estimated
Tue 10:54:00 AM 55.5088 -43.3531 238° Southwest  Level Estimated
Tue 10:55:00 AM 55.4434 -43.5343 238° Southwest  Level Estimated
Tue 10:56:00 AM 55.3777 -43.7150 237° Southwest  Level Estimated
Tue 10:57:00 AM 55.3118 -43.8951 237° Southwest  Level Estimated
Tue 10:58:00 AM 55.2457 -44.0746 237° Southwest  Level Estimated
Tue 10:59:00 AM 55.1792 -44.2535 237° Southwest  Level Estimated
Tue 11:00:00 AM 55.1125 -44.4318 237° Southwest  Level Estimated
Tue 11:01:00 AM 55.0456 -44.6095 237° Southwest  Level Estimated
Tue 11:01:57 AM 63.1333 -55.0167 236° Southwest 370 426 36,000  Level Gander Center
Tue 11:02:00 AM 54.9783 -44.7866 237° Southwest  Level Estimated
Tue 11:02:57 AM 63.0833 -55.2500 245° Southwest 450 518 36,000  Level Gander Center
Tue 11:03:00 AM 54.9109 -44.9631 236° Southwest  Level Estimated
Tue 11:03:57 AM 63.0333 -55.5000 246° West 450 518 36,000  Level Gander Center
Tue 11:04:00 AM 54.8431 -45.1390 236° Southwest  Level Estimated
Tue 11:04:57 AM 62.9833 -55.7333 245° Southwest 450 518 36,000  Level Gander Center
Tue 11:05:00 AM 54.7752 -45.3144 236° Southwest  Level Estimated
Tue 11:05:57 AM 62.9333 -56.0000 248° West 450 518 36,000  Level Gander Center
Tue 11:06:00 AM 54.7069 -45.4891 236° Southwest  Level Estimated
Tue 11:06:57 AM 62.8833 -56.2333 245° Southwest 450 518 36,000  Level Gander Center
Tue 11:07:57 AM 62.8333 -56.5000 248° West 450 518 36,000  Level Gander Center
Tue 11:08:57 AM 62.7667 -56.7167 236° Southwest 450 518 36,000  Level Gander Center
Tue 11:09:57 AM 62.7333 -56.9833 255° West 450 518 36,000  Level Gander Center
Tue 11:10:57 AM 62.6667 -57.2333 240° Southwest 450 518 36,000  Level Gander Center
Tue 11:11:57 AM 62.6167 -57.4667 245° Southwest 450 518 36,000  Level Gander Center
Tue 11:12:51 AM 62.5833 -57.6000 242° Southwest 450 518 36,000  Level Montreal Center
Tue 11:13:51 AM 62.5000 -57.8333 232° Southwest 450 518 36,000  Level Montreal Center
Tue 11:14:51 AM 62.4500 -58.0833 247° West 450 518 36,000  Level Montreal Center
Tue 11:15:51 AM 62.4167 -58.3000 252° West 440 506 36,000  Level Montreal Center
Tue 11:16:51 AM 62.3500 -58.5500 240° Southwest 440 506 36,000  Level Montreal Center
Tue 11:17:51 AM 62.3000 -58.7833 245° Southwest 440 506 36,000  Level Montreal Center
Tue 11:18:51 AM 62.2333 -59.0000 237° Southwest 440 506 36,000  Level Montreal Center
Tue 11:19:51 AM 62.1667 -59.2167 237° Southwest 440 506 36,000  Level Montreal Center
Tue 11:20:51 AM 62.0833 -59.4167 228° Southwest 440 506 36,000  Level Montreal Center
Tue 11:21:51 AM 62.0000 -59.6333 231° Southwest 440 506 36,000  Level Montreal Center
Tue 11:22:51 AM 61.9167 -59.8167 226° Southwest 440 506 36,000  Level Montreal Center
Tue 11:23:51 AM 61.8667 -60.0333 244° Southwest 440 506 36,000  Level Montreal Center
Tue 11:24:51 AM 61.7833 -60.2167 226° Southwest 430 495 36,000  Level Montreal Center
Tue 11:25:51 AM 61.7167 -60.4000 233° Southwest 430 495 36,000  Level Montreal Center
Tue 11:26:51 AM 61.6167 -60.6333 228° Southwest 440 506 36,000  Level Montreal Center
Tue 11:27:51 AM 61.5500 -60.8000 230° Southwest 440 506 36,000  Level Montreal Center
Tue 11:28:51 AM 61.4667 -61.0167 231° Southwest 440 506 36,000  Level Montreal Center
Tue 11:29:51 AM 61.4000 -61.2333 237° Southwest 440 506 36,000  Level Montreal Center
Tue 11:30:51 AM 61.3167 -61.4167 227° Southwest 450 518 36,000  Level Montreal Center
Tue 11:31:57 AM 61.2333 -61.7000 239° Southwest 450 518 36,000  Level Gander Center
Tue 11:32:51 AM 61.1667 -61.8000 216° Southwest 440 506 36,000  Level Montreal Center
Tue 11:33:51 AM 61.0833 -62.0167 232° Southwest 440 506 36,000  Level Montreal Center
Tue 11:34:51 AM 61.0000 -62.2167 229° Southwest 440 506 36,000  Level Montreal Center
Tue 11:35:51 AM 60.9167 -62.4000 227° Southwest 440 506 36,000  Level Montreal Center
Tue 11:36:51 AM 60.8333 -62.6000 230° Southwest 440 506 36,000  Level Montreal Center
Tue 11:37:51 AM 60.7500 -62.8167 232° Southwest 450 518 36,000  Level Montreal Center
Tue 11:38:51 AM 60.6833 -62.9833 231° Southwest 440 506 36,000  Level Montreal Center
Tue 11:39:51 AM 60.6000 -63.1833 230° Southwest 440 506 36,000  Level Montreal Center
Tue 11:40:51 AM 60.5167 -63.4000 232° Southwest 440 506 36,000  Level Montreal Center
Tue 11:41:51 AM 60.4333 -63.6000 230° Southwest 440 506 36,000  Level Montreal Center
Tue 11:42:51 AM 60.3500 -63.7667 225° Southwest 440 506 36,000  Level Montreal Center
Tue 11:43:51 AM 60.2667 -63.9333 225° Southwest 440 506 36,000  Level Montreal Center
Tue 11:44:51 AM 60.2000 -64.1333 236° Southwest 440 506 36,000  Level Montreal Center
Tue 11:45:51 AM 60.1000 -64.3000 220° Southwest 440 506 36,000  Level Montreal Center
Tue 11:46:51 AM 60.0167 -64.5000 230° Southwest 440 506 36,000  Level Montreal Center
Tue 11:47:51 AM 59.9500 -64.6500 228° Southwest 440 506 36,000  Level Montreal Center
Tue 11:48:51 AM 59.8667 -64.8500 230° Southwest 440 506 36,000  Level Montreal Center
Tue 11:49:51 AM 59.7833 -65.0500 230° Southwest 440 506 36,000  Level Montreal Center
Tue 11:50:51 AM 59.6833 -65.2167 220° Southwest 440 506 36,000  Level Montreal Center
Tue 11:51:51 AM 59.6167 -65.3667 229° Southwest 440 506 36,000  Level Montreal Center
Tue 11:52:51 AM 59.5333 -65.5667 231° Southwest 440 506 36,000  Level Montreal Center
Tue 11:53:51 AM 59.4500 -65.7500 228° Southwest 440 506 36,000  Level Montreal Center
Tue 11:54:51 AM 59.3500 -65.9167 220° Southwest 440 506 36,000  Level Montreal Center
Tue 11:55:51 AM 59.2667 -66.1000 228° Southwest 440 506 36,000  Level Montreal Center
Tue 11:56:51 AM 59.2000 -66.2667 232° Southwest 440 506 36,000  Level Montreal Center
Tue 11:57:51 AM 59.1000 -66.4500 223° Southwest 440 506 36,000  Level Montreal Center
Tue 11:58:51 AM 59.0167 -66.6000 223° Southwest 440 506 36,000  Level Montreal Center
Tue 11:59:51 AM 58.9500 -66.7833 235° Southwest 440 506 36,000  Level Montreal Center
Tue 12:00:51 PM 58.8500 -66.9500 221° Southwest 440 506 36,000  Level Montreal Center
Tue 12:01:51 PM 58.7667 -67.1333 229° Southwest 440 506 36,000  Level Montreal Center
Tue 12:02:57 PM 58.6833 -67.3500 234° Southwest 440 506 36,000  Level Gander Center
Tue 12:03:51 PM 58.6000 -67.4667 216° Southwest 440 506 36,000  Level Montreal Center
Tue 12:04:51 PM 58.5000 -67.6167 218° Southwest 440 506 36,000  Level Montreal Center
Tue 12:05:57 PM 58.4000 -67.8667 233° Southwest 440 506 36,000  Level Gander Center
Tue 12:06:51 PM 58.3500 -67.9333 215° Southwest 430 495 36,000  Level Montreal Center
Tue 12:07:51 PM 58.2500 -68.1167 224° Southwest 450 518 36,000  Level Montreal Center
Tue 12:08:51 PM 58.1667 -68.3000 229° Southwest 460 529 36,000  Level Montreal Center
Tue 12:10:28 PM 58.0167 -68.5167 217° Southwest 460 529 36,000  Level Montreal Center
Tue 12:11:28 PM 57.9167 -68.6333 212° Southwest 440 506 36,000  Level Montreal Center
Tue 12:12:28 PM 57.8167 -68.7833 219° Southwest 440 506 36,000  Level Montreal Center
Tue 12:13:28 PM 57.7167 -68.9333 219° Southwest 440 506 36,000  Level Montreal Center
Tue 12:14:28 PM 57.6167 -69.0500 212° Southwest 440 506 36,000  Level Montreal Center
Tue 12:15:28 PM 57.5167 -69.1833 216° Southwest 440 506 36,000  Level Montreal Center
Tue 12:16:28 PM 57.4333 -69.3333 224° Southwest 430 495 36,000  Level Montreal Center
Tue 12:17:28 PM 57.3333 -69.4500 212° Southwest 430 495 36,000  Level Montreal Center
Tue 12:18:28 PM 57.2333 -69.5833 216° Southwest 430 495 36,000  Level Montreal Center
Tue 12:19:28 PM 57.1167 -69.7000 209° Southwest 430 495 36,000  Level Montreal Center
Tue 12:20:28 PM 57.0333 -69.8333 221° Southwest 430 495 36,000  Level Montreal Center
Tue 12:21:28 PM 56.9167 -69.9833 215° Southwest 430 495 36,000  Level Montreal Center
Tue 12:22:28 PM 56.8167 -70.1167 216° Southwest 430 495 36,000  Level Montreal Center
Tue 12:23:28 PM 56.7333 -70.2167 213° Southwest 430 495 36,000  Level Montreal Center
Tue 12:24:28 PM 56.6333 -70.3667 220° Southwest 430 495 36,000  Level Montreal Center
Tue 12:25:28 PM 56.5333 -70.4667 209° Southwest 430 495 36,000  Level Montreal Center
Tue 12:26:28 PM 56.4333 -70.6000 216° Southwest 430 495 36,000  Level Montreal Center
Tue 12:27:28 PM 56.3333 -70.7000 209° Southwest 430 495 36,000  Level Montreal Center
Tue 12:28:28 PM 56.2333 -70.8500 220° Southwest 430 495 36,000  Level Montreal Center
Tue 12:29:28 PM 56.1167 -70.9833 213° Southwest 430 495 36,000  Level Montreal Center
Tue 12:30:28 PM 56.0167 -71.0833 209° Southwest 430 495 36,000  Level Montreal Center
Tue 12:31:28 PM 55.9333 -71.2167 222° Southwest 430 495 36,000  Level Montreal Center
Tue 12:32:28 PM 55.8333 -71.3167 209° Southwest 440 506 36,000  Level Montreal Center
Tue 12:33:28 PM 55.7333 -71.4500 214° Southwest 430 495 36,000  Level Montreal Center
Tue 12:34:00 PM 55.6746 -71.5075 214° Southwest  Level FlightAware Approximate
Tue 12:34:28 PM 55.6333 -71.5500 209° Southwest 430 495 36,000  Level Montreal Center
Tue 12:35:28 PM 55.5167 -71.6833 213° Southwest 430 495 36,000  Level Montreal Center
Tue 12:36:28 PM 55.4167 -71.7833 210° Southwest 430 495 36,000  Level Montreal Center
Tue 12:37:28 PM 55.3333 -71.9000 219° Southwest 430 495 36,000  Level Montreal Center
Tue 12:38:28 PM 55.2333 -72.0333 217° Southwest 430 495 36,000  Level Montreal Center
Tue 12:39:28 PM 55.1333 -72.1333 210° Southwest 430 495 36,000  Level Montreal Center
Tue 12:40:28 PM 55.0167 -72.2667 213° Southwest 430 495 36,000  Level Montreal Center
Tue 12:41:28 PM 54.9167 -72.3667 210° Southwest 430 495 36,000  Level Montreal Center
Tue 12:42:28 PM 54.8000 -72.4500 202° Southwest 430 495 36,000  Level Montreal Center
Tue 12:43:28 PM 54.7000 -72.5500 210° Southwest 430 495 36,000  Level Montreal Center
Tue 12:44:28 PM 54.5833 -72.6500 206° Southwest 440 506 36,000  Level Montreal Center
Tue 12:45:28 PM 54.5000 -72.7500 215° Southwest 430 495 36,000  Level Montreal Center
Tue 12:46:28 PM 54.3833 -72.8333 203° Southwest 440 506 36,000  Level Montreal Center
Tue 12:47:28 PM 54.2833 -72.9333 210° Southwest 430 495 36,000  Level Montreal Center
Tue 12:48:28 PM 54.1667 -73.0333 207° Southwest 430 495 36,000  Level Montreal Center
Tue 12:49:28 PM 54.0667 -73.1167 206° Southwest 430 495 36,000  Level Montreal Center
Tue 12:50:28 PM 53.9500 -73.2167 207° Southwest 430 495 36,000  Level Montreal Center
Tue 12:51:28 PM 53.8500 -73.3167 211° Southwest 440 506 36,000  Level Montreal Center
Tue 12:52:28 PM 53.7167 -73.4333 207° Southwest 440 506 36,000  Level Montreal Center
Tue 12:53:28 PM 53.6167 -73.5167 206° Southwest 440 506 36,000  Level Montreal Center
Tue 12:54:28 PM 53.5000 -73.6167 207° Southwest 440 506 36,000  Level Montreal Center
Tue 12:55:28 PM 53.4000 -73.7000 206° Southwest 440 506 36,000  Level Montreal Center
Tue 12:56:28 PM 53.2833 -73.8000 207° Southwest 440 506 36,000  Level Montreal Center
Tue 12:57:28 PM 53.1667 -73.8833 203° Southwest 440 506 36,000  Level Montreal Center
Tue 12:58:28 PM 53.0667 -73.9667 207° Southwest 440 506 36,000  Level Montreal Center
Tue 12:59:28 PM 52.9500 -74.0667 207° Southwest 440 506 36,000  Level Montreal Center
Tue 01:00:28 PM 52.8333 -74.1500 203° Southwest 440 506 36,000  Level Montreal Center
Tue 01:01:28 PM 52.7333 -74.2333 207° Southwest 440 506 36,000  Level Montreal Center
Tue 01:02:28 PM 52.6167 -74.3333 208° Southwest 440 506 36,000  Level Montreal Center
Tue 01:03:28 PM 52.5000 -74.4500 211° Southwest 450 518 36,000  Level Montreal Center
Tue 01:04:28 PM 52.4000 -74.5333 207° Southwest 440 506 36,000  Level Montreal Center
Tue 01:05:28 PM 52.2833 -74.6167 204° Southwest 440 506 36,000  Level Montreal Center
Tue 01:06:28 PM 52.1667 -74.7000 204° Southwest 430 495 36,000  Level Montreal Center
Tue 01:07:28 PM 52.0667 -74.7833 207° Southwest 430 495 36,000  Level Montreal Center
Tue 01:08:28 PM 51.9500 -74.8667 204° Southwest 450 518 36,000  Level Montreal Center
Tue 01:09:28 PM 51.8333 -74.9500 204° Southwest 440 506 36,000  Level Montreal Center
Tue 01:10:28 PM 51.7333 -75.0333 207° Southwest 440 506 36,000  Level Montreal Center
Tue 01:11:28 PM 51.6167 -75.1167 204° Southwest 440 506 36,000  Level Montreal Center
Tue 01:12:28 PM 51.5000 -75.2333 212° Southwest 440 506 36,000  Level Montreal Center
Tue 01:13:28 PM 51.4000 -75.3167 207° Southwest 440 506 36,000  Level Montreal Center
Tue 01:14:28 PM 51.2833 -75.4000 204° Southwest 440 506 36,000  Level Montreal Center
Tue 01:15:28 PM 51.1833 -75.4833 208° Southwest 440 506 36,000  Level Montreal Center
Tue 01:16:28 PM 51.0667 -75.5667 204° Southwest 440 506 36,000  Level Montreal Center
Tue 01:17:28 PM 50.9500 -75.6500 204° Southwest 440 506 36,000  Level Montreal Center
Tue 01:18:28 PM 50.8500 -75.7333 208° Southwest 440 506 36,000  Level Montreal Center
Tue 01:19:28 PM 50.7333 -75.8000 200° South 450 518 36,000  Level Montreal Center
Tue 01:20:28 PM 50.6000 -75.9167 209° Southwest 450 518 36,000  Level Montreal Center
Tue 01:21:28 PM 50.5000 -76.0000 208° Southwest 450 518 36,000  Level Montreal Center
Tue 01:22:28 PM 50.4000 -76.0667 203° Southwest 450 518 36,000  Level Montreal Center
Tue 01:23:28 PM 50.2667 -76.1500 202° Southwest 450 518 36,000  Level Montreal Center
Tue 01:24:28 PM 50.1667 -76.2333 208° Southwest 450 518 36,000  Level Montreal Center
Tue 01:25:28 PM 50.0500 -76.3000 200° South 450 518 36,000  Level Montreal Center
Tue 01:26:28 PM 49.9167 -76.3833 202° Southwest 450 518 36,000  Level Montreal Center
Tue 01:27:28 PM 49.8000 -76.4667 205° Southwest 450 518 36,000  Level Montreal Center
Tue 01:28:28 PM 49.7000 -76.5667 213° Southwest 450 518 36,000  Level Montreal Center
Tue 01:29:28 PM 49.5833 -76.6333 200° South 440 506 36,000  Level Montreal Center
Tue 01:30:28 PM 49.4667 -76.7167 205° Southwest 460 529 36,000  Level Montreal Center
Tue 01:31:28 PM 49.3500 -76.8000 205° Southwest 460 529 36,000  Level Montreal Center
Tue 01:32:28 PM 49.2500 -76.8667 204° Southwest 440 506 36,000  Level Montreal Center
Tue 01:33:28 PM 49.1333 -76.9500 205° Southwest 460 529 36,000  Level Montreal Center
Tue 01:34:28 PM 49.0167 -77.0500 209° Southwest 460 529 36,000  Level Montreal Center
Tue 01:35:28 PM 48.9000 -77.1167 201° Southwest 460 529 36,000  Level Montreal Center
Tue 01:36:28 PM 48.7667 -77.1833 198° South 460 529 36,000  Level Montreal Center
Tue 01:37:28 PM 48.6500 -77.2667 205° Southwest 450 518 36,000  Level Montreal Center
Tue 01:38:28 PM 48.5333 -77.3667 210° Southwest 460 529 36,000  Level Montreal Center
Tue 01:39:28 PM 48.4167 -77.4333 201° Southwest 450 518 36,000  Level Montreal Center
Tue 01:40:28 PM 48.3167 -77.5000 204° Southwest 460 529 36,000  Level Montreal Center
Tue 01:41:28 PM 48.1833 -77.5833 203° Southwest 460 529 36,000  Level Montreal Center
Tue 01:42:28 PM 48.0833 -77.6500 204° Southwest 460 529 36,000  Level Montreal Center
Tue 01:43:28 PM 47.9667 -77.7167 201° Southwest 460 529 36,000  Level Montreal Center
Tue 01:44:28 PM 47.8500 -77.8167 210° Southwest 460 529 36,000  Level Montreal Center
Tue 01:45:28 PM 47.7167 -77.8833 199° South 460 529 36,000  Level Montreal Center
Tue 01:46:28 PM 47.6000 -77.9667 206° Southwest 460 529 36,000  Level Montreal Center
Tue 01:47:28 PM 47.4833 -78.0333 201° Southwest 460 529 36,000  Level Montreal Center
Tue 01:48:28 PM 47.3667 -78.1167 206° Southwest 460 529 36,000  Level Montreal Center
Tue 01:49:28 PM 47.2500 -78.2000 206° Southwest 460 529 36,000  Level Montreal Center
Tue 01:50:28 PM 47.1333 -78.2667 201° Southwest 460 529 36,000  Level Montreal Center
Tue 01:51:28 PM 47.0167 -78.3333 201° Southwest 460 529 36,000  Level Montreal Center
Tue 01:57:34 PM 46.2933 -78.7857 201° Southwest 466 536 36,000  Level FlightAware ADS-B (CYYZ)
Tue 01:58:05 PM 46.2350 -78.8211 203° Southwest 466 536 36,000  Level FlightAware ADS-B (CYYZ)
Tue 01:58:34 PM 46.1779 -78.8557 203° Southwest 466 536 36,000  Level FlightAware ADS-B (CYYZ)
Tue 01:59:04 PM 46.1146 -78.8941 203° Southwest 466 536 36,000  Level FlightAware ADS-B (CYYZ)
Tue 01:59:34 PM 46.0551 -78.9300 203° Southwest 465 535 36,000  Level FlightAware ADS-B (CYYZ)
Tue 02:00:02 PM 45.9986 -78.9640 203° Southwest 463 533 36,000  Level FlightAware ADS-B
Tue 02:00:04 PM 45.9970 -78.9651 203° Southwest 464 534 36,000  Level FlightAware ADS-B (CYYZ)
Tue 02:00:33 PM 45.9393 -78.9997 203° Southwest 464 534 36,000  Level FlightAware ADS-B (CYYZ)
Tue 02:01:02 PM 45.8838 -79.0330 203° Southwest 463 533 36,000  Level FlightAware ADS-B (CYYZ)
Tue 02:01:34 PM 45.8195 -79.0713 203° Southwest 462 532 36,000  Level FlightAware ADS-B (CYYZ)
Tue 02:02:05 PM 45.7602 -79.1067 203° Southwest 463 533 36,000  Level FlightAware ADS-B (CYYZ)
Tue 02:02:34 PM 45.7011 -79.1419 203° Southwest 463 533 36,000  Level FlightAware ADS-B (CYYZ)
Tue 02:03:04 PM 45.6442 -79.1757 203° Southwest 464 534 36,000  Level FlightAware ADS-B (CYYZ)
Tue 02:03:34 PM 45.5854 -79.2106 203° Southwest 467 537 36,000  Level FlightAware ADS-B (CYYZ)
Tue 02:04:04 PM 45.5240 -79.2469 203° Southwest 468 539 36,000  Level FlightAware ADS-B (CYYZ)
Tue 02:04:34 PM 45.4621 -79.2834 202° Southwest 471 542 36,000  Level FlightAware ADS-B (CYYZ)
Tue 02:05:05 PM 45.4013 -79.3193 202° Southwest 472 543 36,000  Level FlightAware ADS-B (CYYZ)
Tue 02:05:35 PM 45.3417 -79.3542 202° Southwest 470 541 36,000  Level FlightAware ADS-B (CYYZ)
Tue 02:06:05 PM 45.2803 -79.3901 202° Southwest 468 539 36,000  Level FlightAware ADS-B (CYYZ)
Tue 02:06:34 PM 45.2225 -79.4239 202° Southwest 467 537 36,000  Level FlightAware ADS-B (CYYZ)
Tue 02:07:04 PM 45.1689 -79.4551 202° Southwest 467 537 36,000  Level FlightAware ADS-B (CYYZ)
Tue 02:07:34 PM 45.1023 -79.4939 202° Southwest 468 539 36,000  Level FlightAware ADS-B (CYYZ)
Tue 02:08:05 PM 45.0413 -79.5294 202° Southwest 469 540 36,000  Level FlightAware ADS-B (CYYZ)
Tue 02:08:13 PM 45.0247 -79.5390 202° Southwest 470 541 36,000  Level FlightAware ADS-B
Tue 02:08:34 PM 44.9849 -79.5620 202° Southwest 470 541 36,000  Level FlightAware ADS-B (CYYZ)
Tue 02:08:48 PM 44.9578 -79.5777 202° Southwest 470 541 36,000  Level FlightAware ADS-B
Tue 02:09:04 PM 44.9210 -79.5990 202° Southwest 472 543 36,000  Level FlightAware ADS-B (CYYZ)
Tue 02:09:34 PM 44.8609 -79.6336 202° Southwest 472 543 36,000  Level FlightAware ADS-B (CYYZ)
Tue 02:10:01 PM 44.8077 -79.6641 202° Southwest 469 540 36,000  Level FlightAware ADS-B (CYYZ)
Tue 02:10:34 PM 44.7758 -79.6824 202° Southwest 464 534 36,000  Level FlightAware ADS-B (CYYZ)
Tue 02:10:40 PM 44.7347 -79.7060 202° Southwest 463 533 36,000  Level FlightAware ADS-B (EPLB / LUZ)
Tue 02:10:53 PM 44.7225 -79.7129 202° Southwest 464 534 36,000  Level FlightAware ADS-B (CYYZ)
Tue 02:11:37 PM 44.6270 -79.7676 202° Southwest 462 532 36,000  Level FlightAware ADS-B (EPLB / LUZ)
Tue 02:11:44 PM 44.6033 -79.7821 203° Southwest 462 532 36,000  Level FlightAware ADS-B (CYYZ)
Tue 02:12:17 PM 44.5498 -79.8208 207° Southwest 456 525 36,000  Level FlightAware ADS-B (EPLB / LUZ)
Tue 02:12:34 PM 44.5161 -79.8505 212° Southwest 454 522 36,000  Level FlightAware ADS-B (CYYZ)
Tue 02:12:48 PM 44.4875 -79.8769 213° Southwest 452 520 36,000  Level FlightAware ADS-B (EPLB / LUZ)
Tue 02:13:03 PM 44.4611 -79.9014 214° Southwest 452 520 36,000  Level FlightAware ADS-B (CYYZ)
Tue 02:13:34 PM 44.4084 -79.9499 213° Southwest 450 518 36,000  Level FlightAware ADS-B (CYYZ)
Tue 02:13:48 PM 44.3843 -79.9716 213° Southwest 449 517 36,000  Level FlightAware ADS-B (EPLB / LUZ)
Tue 02:14:04 PM 44.3545 -79.9985 213° Southwest 451 519 36,000  Level FlightAware ADS-B (CYYZ)
Tue 02:14:34 PM 44.3021 -80.0454 213° Southwest 447 514 36,000  Level FlightAware ADS-B (CYYZ)
Tue 02:14:50 PM 44.2774 -80.0676 213° Southwest 447 514 36,000  Level FlightAware ADS-B (EPLB / LUZ)
Tue 02:15:05 PM 44.2495 -80.0924 213° Southwest 448 516 36,000  Level FlightAware ADS-B (CYYZ)
Tue 02:15:21 PM 44.2217 -80.1172 213° Southwest 448 516 36,000  Level FlightAware ADS-B (EPLB / LUZ)
Tue 02:15:35 PM 44.1979 -80.1385 213° Southwest 449 517 36,000  Level FlightAware ADS-B (CYYZ)
Tue 02:16:04 PM 44.1458 -80.1849 213° Southwest 450 518 36,000  Level FlightAware ADS-B (CYYZ)
Tue 02:16:34 PM 44.0933 -80.2315 213° Southwest 449 517 36,000  Level FlightAware ADS-B (CYYZ)
Tue 02:16:36 PM 44.0915 -80.2331 212° Southwest 448 516 36,000  Level FlightAware ADS-B (EPLB / LUZ)
Tue 02:17:04 PM 44.0420 -80.2771 213° Southwest 450 518 36,000  Level FlightAware ADS-B (CYYZ)
Tue 02:17:17 PM 44.0315 -80.2863 212° Southwest 448 516 36,000  Level FlightAware ADS-B (EPLB / LUZ)
Tue 02:17:34 PM 43.9893 -80.3237 212° Southwest 451 519 36,000  Level FlightAware ADS-B (CYYZ)
Tue 02:17:47 PM 43.9661 -80.3442 212° Southwest 451 519 36,000  Level FlightAware ADS-B (EPLB / LUZ)
Tue 02:18:04 PM 43.9354 -80.3713 212° Southwest 453 521 36,000  Level FlightAware ADS-B (CYYZ)
Tue 02:18:28 PM 43.8952 -80.4067 212° Southwest 453 521 36,000  Level FlightAware ADS-B (EPLB / LUZ)
Tue 02:18:34 PM 43.8838 -80.4167 212° Southwest 454 522 36,000  Level FlightAware ADS-B (CYYZ)
Tue 02:19:04 PM 43.8314 -80.4629 212° Southwest 454 522 36,000  Level FlightAware ADS-B (CYYZ)
Tue 02:19:17 PM 43.8246 -80.4688 212° Southwest 454 522 36,000  Level FlightAware ADS-B (EPLB / LUZ)
Tue 02:19:31 PM 43.7887 -80.5003 212° Southwest 454 522 36,000  Level FlightAware ADS-B (CYYZ)
Tue 02:20:04 PM 43.7387 -80.5439 212° Southwest 456 525 36,000  Level FlightAware ADS-B (CYYZ)
Tue 02:20:44 PM 43.6479 -80.6083 207° Southwest 460 529 36,000  Level FlightAware ADS-B (CYYZ)
Tue 02:21:15 PM 43.6007 -80.6414 207° Southwest 459 528 36,000  Level FlightAware ADS-B (CYYZ)
Tue 02:21:30 PM 43.5677 -80.6646 207° Southwest 458 527 36,000  Level FlightAware ADS-B (EPLB / LUZ)
Tue 02:21:44 PM 43.5381 -80.6856 207° Southwest 456 525 36,000  Level FlightAware ADS-B (CYYZ)
Tue 02:22:12 PM 43.4902 -80.7193 207° Southwest 456 525 36,000  Level FlightAware ADS-B (CYYZ)
Tue 02:22:16 PM 43.5102 -80.7052 27° Northeast 455 524 36,000  Level FlightAware ADS-B
Tue 02:22:44 PM 43.4215 -80.7676 207° Southwest 457 526 36,000  Level FlightAware ADS-B (CYYZ)
Tue 02:22:48 PM 43.4310 -80.7608 27° Northeast 456 525 36,000  Level FlightAware ADS-B (EPLB / LUZ)
Tue 02:23:14 PM 43.3674 -80.8054 207° Southwest 458 527 36,000  Level FlightAware ADS-B (CYYZ)
Tue 02:23:28 PM 43.3452 -80.8209 207° Southwest 458 527 36,000  Level FlightAware ADS-B (EPLB / LUZ)
Tue 02:23:44 PM 43.3110 -80.8449 207° Southwest 460 529 36,000  Level FlightAware ADS-B (CYYZ)
Tue 02:24:01 PM 43.2774 -80.8683 207° Southwest 460 529 36,000  Level FlightAware ADS-B (EPLB / LUZ)
Tue 02:24:14 PM 43.2524 -80.8857 207° Southwest 462 532 36,000  Level FlightAware ADS-B (CYYZ)
Tue 02:24:40 PM 43.2025 -80.9204 207° Southwest 462 532 36,000  Level FlightAware ADS-B (EPLB / LUZ)
Tue 02:24:45 PM 43.1952 -80.9256 207° Southwest 462 532 36,000  Level FlightAware ADS-B (CYYZ)
Tue 02:25:13 PM 43.1417 -80.9627 207° Southwest 461 531 36,000  Level FlightAware ADS-B (EPLB / LUZ)
Tue 02:25:15 PM 43.1384 -80.9649 207° Southwest 462 532 36,000  Level FlightAware ADS-B (CYYZ)
Tue 02:25:44 PM 43.0806 -81.0050 207° Southwest 460 529 36,000  Level FlightAware ADS-B (CYYZ)
Tue 02:25:53 PM 43.0660 -81.0150 207° Southwest 458 527 36,000  Level FlightAware ADS-B (EPLB / LUZ)
Tue 02:26:14 PM 43.0238 -81.0443 207° Southwest 459 528 36,000  Level FlightAware ADS-B (CYYZ)
Tue 02:26:45 PM 42.9670 -81.0834 207° Southwest 457 526 36,000  Level FlightAware ADS-B (CYYZ)
Tue 02:27:14 PM 42.9116 -81.1216 207° Southwest 456 525 36,000  Level FlightAware ADS-B (CYYZ)
Tue 02:27:36 PM 42.8794 -81.1439 207° Southwest 454 522 36,000  Level FlightAware ADS-B (EPLB / LUZ)
Tue 02:27:45 PM 42.8545 -81.1609 207° Southwest 454 522 36,000  Level FlightAware ADS-B (CYYZ)
Tue 02:28:15 PM 42.8002 -81.1981 207° Southwest 453 521 36,000  Level FlightAware ADS-B (CYYZ)
Tue 02:28:17 PM 42.7955 -81.2013 206° Southwest 452 520 36,000  Level FlightAware ADS-B (EPLB / LUZ)
Tue 02:28:44 PM 42.7425 -81.2375 207° Southwest 453 521 36,000  Level FlightAware ADS-B (CYYZ)
Tue 02:28:49 PM 42.7353 -81.2424 207° Southwest 452 520 36,000  Level FlightAware ADS-B (EPLB / LUZ)
Tue 02:29:15 PM 42.6888 -81.2744 207° Southwest 453 521 36,000  Level FlightAware ADS-B (CYYZ)
Tue 02:29:28 PM 42.6644 -81.2912 207° Southwest 453 521 36,000  Level FlightAware ADS-B (EPLB / LUZ)
Tue 02:29:44 PM 42.6311 -81.3139 207° Southwest 453 521 36,000  Level FlightAware ADS-B (CYYZ)
Tue 02:30:14 PM 42.5745 -81.3524 207° Southwest 452 520 36,000  Level FlightAware ADS-B (CYYZ)
Tue 02:30:44 PM 42.5205 -81.3891 207° Southwest 450 518 36,000  Level FlightAware ADS-B (CYYZ)
Tue 02:31:14 PM 42.4639 -81.4273 207° Southwest 449 517 36,000  Level FlightAware ADS-B (CYYZ)
Tue 02:31:45 PM 42.4075 -81.4655 207° Southwest 449 517 36,000  Level FlightAware ADS-B (CYYZ)
Tue 02:32:14 PM 42.3522 -81.5029 207° Southwest 449 517 36,000  Level FlightAware ADS-B (CYYZ)
Tue 02:32:44 PM 42.2976 -81.5397 207° Southwest 449 517 36,000  Level FlightAware ADS-B (CYYZ)
Tue 02:33:14 PM 42.2410 -81.5778 206° Southwest 449 517 36,000  Level FlightAware ADS-B (CYYZ)
Tue 02:33:45 PM 42.1857 -81.6148 206° Southwest 448 516 36,000  Level FlightAware ADS-B (CYYZ)
Tue 02:34:14 PM 42.1296 -81.6525 206° Southwest 448 516 36,000  Level FlightAware ADS-B (CYYZ)
Tue 02:34:44 PM 42.0756 -81.6886 206° Southwest 448 516 36,000  Level FlightAware ADS-B (CYYZ)
Tue 02:35:14 PM 42.0195 -81.7260 206° Southwest 447 514 36,000  Level FlightAware ADS-B (CYYZ)
Tue 02:35:44 PM 41.9637 -81.7631 206° Southwest 445 512 36,000  Level FlightAware ADS-B (CYYZ)
Tue 02:36:14 PM 41.9081 -81.8001 206° Southwest 444 511 36,000  Level FlightAware ADS-B (CYYZ)
Tue 02:36:45 PM 41.8554 -81.8351 206° Southwest 443 510 36,000  Level FlightAware ADS-B (CYYZ)
Tue 02:37:15 PM 41.7988 -81.8726 206° Southwest 440 506 36,000  Level FlightAware ADS-B (CYYZ)
Tue 02:37:44 PM 41.7445 -81.9086 206° Southwest 439 505 36,000  Level FlightAware ADS-B (CYYZ)
Tue 02:38:09 PM 41.7023 -81.9364 206° Southwest 438 504 36,000  Level FlightAware ADS-B (CYYZ)
Tue 02:38:44 PM 41.6362 -81.9799 206° Southwest 437 503 36,000  Level FlightAware ADS-B (CYYZ)
Tue 02:39:15 PM 41.5806 -82.0165 206° Southwest 438 504 36,000  Level FlightAware ADS-B (CYYZ)
Tue 02:39:42 PM 41.5300 -82.0497 206° Southwest 438 504 36,000  Level FlightAware ADS-B (CYYZ)
Tue 02:40:14 PM 41.4792 -82.0829 206° Southwest 439 505 36,000  Level FlightAware ADS-B (CYYZ)
Tue 02:41:29 PM 41.3801 -82.1464 206° Southwest 453 521 36,000  Level FlightAware ADS-B (CYYZ)
Tue 02:42:17 PM 41.2866 -82.1853 197° South 452 520 36,000  Level FlightAware ADS-B (CYYZ)
Tue 02:43:00 PM 41.1644 -82.2300 197° South 452 520 36,000  Level Cleveland Center
Tue 02:44:02 PM 41.0428 -82.2750 196° South 452 520 36,000  Level Cleveland Center
Tue 02:45:04 PM 40.9219 -82.3178 195° South 451 519 36,000  Level Cleveland Center
Tue 02:45:41 PM 40.8403 -82.3467 195° South 452 520 36,000  Level Indianapolis Center
Tue 02:46:43 PM 40.7186 -82.3897 195° South 452 520 36,000  Level Indianapolis Center
Tue 02:52:43 PM 39.9555 -82.6015 195° South 474 545 36,000  Level FlightAware ADS-B (EGOD)
Tue 02:53:22 PM 39.8785 -82.6070 183° South 474 545 36,000  Level FlightAware ADS-B (EGOD)
Tue 02:53:55 PM 39.8257 -82.6105 183° South 473 544 36,000  Level FlightAware ADS-B (EGOD)
Tue 02:54:37 PM 39.7051 -82.6186 183° South 474 545 36,000  Level FlightAware ADS-B
Tue 02:55:08 PM 39.6439 -82.6228 183° South 475 547 36,000  Level FlightAware ADS-B
Tue 02:55:50 PM 39.5464 -82.6294 183° South 475 547 36,000  Level FlightAware ADS-B
Tue 02:56:21 PM 39.4774 -82.6339 183° South 472 543 36,000  Level FlightAware ADS-B
Tue 02:57:05 PM 39.3842 -82.6402 183° South 470 541 36,000  Level FlightAware ADS-B
Tue 02:57:44 PM 39.2959 -82.6461 183° South 470 541 36,000  Level FlightAware ADS-B
Tue 02:58:24 PM 39.2094 -82.6519 183° South 470 541 36,000  Level FlightAware ADS-B
Tue 02:58:55 PM 39.1482 -82.6559 183° South 472 543 36,000  Level FlightAware ADS-B
Tue 02:59:26 PM 39.0728 -82.6512 177° South 493 567 36,000  Level FlightAware ADS-B
Tue 02:59:59 PM 38.9987 -82.6404 174° South 495 570 36,000  Level FlightAware ADS-B
Tue 03:00:29 PM 38.9308 -82.6304 173° South 494 568 36,000  Level FlightAware ADS-B
Tue 03:01:00 PM 38.8591 -82.6197 173° South 493 567 36,000  Level FlightAware ADS-B
Tue 03:01:31 PM 38.7905 -82.6095 173° South 493 567 36,000  Level FlightAware ADS-B
Tue 03:02:01 PM 38.7219 -82.5994 173° South 493 567 36,000  Level FlightAware ADS-B
Tue 03:02:32 PM 38.6869 -82.5944 174° South 494 568 36,000  Level FlightAware ADS-B
Tue 03:03:17 PM 38.5639 -82.5775 174° South 491 565 36,000  Level Indianapolis Center
Tue 03:04:19 PM 38.4361 -82.5989 187° South 460 529 36,000  Level Indianapolis Center
Tue 03:05:21 PM 38.3117 -82.6264 190° South 459 528 36,000  Level Indianapolis Center
Tue 03:06:23 PM 38.1842 -82.6539 190° South 459 528 36,000  Level Indianapolis Center
Tue 03:07:25 PM 38.0356 -82.6869 190° South 460 529 36,000  Level Indianapolis Center
Tue 03:08:27 PM 37.9081 -82.7122 189° South 461 531 36,000  Level Indianapolis Center
Tue 03:09:29 PM 37.7808 -82.7394 190° South 461 531 36,000  Level Indianapolis Center
Tue 03:10:31 PM 37.6561 -82.7736 192° South 461 531 36,000  Level Indianapolis Center
Tue 03:11:33 PM 37.5492 -82.8369 205° Southwest 428 493 36,000  Level Indianapolis Center
Tue 03:12:36 PM 37.4308 -82.9158 208° Southwest 415 478 36,000  Level Indianapolis Center
Tue 03:13:38 PM 37.3281 -82.9822 207° Southwest 415 478 36,000  Level Indianapolis Center
Tue 03:14:40 PM 37.2250 -83.0492 207° Southwest 416 479 36,000  Level Indianapolis Center
Tue 03:15:42 PM 37.1231 -83.1150 207° Southwest 416 479 36,000  Level Indianapolis Center
Tue 03:16:44 PM 37.0044 -83.1931 208° Southwest 416 479 36,000  Level Indianapolis Center
Tue 03:17:46 PM 36.9014 -83.2594 207° Southwest 416 479 36,000  Level Indianapolis Center
Tue 03:18:48 PM 36.7969 -83.3267 207° Southwest 419 482 36,000  Level Indianapolis Center
Tue 03:19:50 PM 36.6914 -83.3950 207° Southwest 425 489 36,000  Level Indianapolis Center
Tue 03:20:52 PM 36.5858 -83.4619 207° Southwest 425 489 36,000  Level Indianapolis Center
Tue 03:21:54 PM 36.4617 -83.5417 207° Southwest 426 490 36,000  Level Indianapolis Center
Tue 03:22:57 PM 36.3539 -83.6106 207° Southwest 430 495 36,000  Level Indianapolis Center
Tue 03:23:59 PM 36.2461 -83.6792 207° Southwest 431 496 36,000  Level Indianapolis Center
Tue 03:25:01 PM 36.1375 -83.7481 207° Southwest 433 498 36,000  Level Indianapolis Center
Tue 03:26:03 PM 36.0281 -83.8156 207° Southwest 434 499 36,000  Level Indianapolis Center
Tue 03:32:05 PM 35.2770 -84.0468 207° Southwest 446 513 36,000  Level FlightAware ADS-B (KDZJ)
Tue 03:32:49 PM 35.1856 -84.0688 191° South 446 513 36,000  Level FlightAware ADS-B (KDZJ)
Tue 03:33:27 PM 35.1086 -84.0873 191° South 447 514 36,000  Level FlightAware ADS-B (KDZJ)
Tue 03:34:04 PM 35.0314 -84.1058 191° South 456 525 36,000  Level FlightAware ADS-B (KDZJ)
Tue 03:34:44 PM 34.9489 -84.1255 191° South 457 526 36,000  Level FlightAware ADS-B (KDZJ)
Tue 03:35:30 PM 34.8522 -84.1485 191° South 459 528 36,000  Level FlightAware ADS-B (KDZJ)
Tue 03:36:06 PM 34.7805 -84.1655 191° South 458 527 36,000 -225 Level FlightAware ADS-B (KDZJ)
Tue 03:36:50 PM 34.6854 -84.1880 191° South 455 524 35,700 -444 Descending FlightAware ADS-B (KDZJ)
Tue 03:37:27 PM 34.6099 -84.2057 191° South 443 510 35,400 -450 Descending FlightAware ADS-B (KDZJ)
Tue 03:38:10 PM 34.5244 -84.2260 191° South 442 509 35,100 -289 Descending FlightAware ADS-B (KDZJ)
Tue 03:38:50 PM 34.4445 -84.2449 191° South 440 506 35,000 -75 Descending FlightAware ADS-B (KDZJ)
Tue 03:39:30 PM 34.3626 -84.2642 191° South 440 506 35,000  Level FlightAware ADS-B (KDZJ)
Tue 03:40:09 PM 34.2835 -84.2828 191° South 443 510 35,000  Level FlightAware ADS-B (KDZJ)
Tue 03:40:50 PM 34.2013 -84.3020 191° South 444 511 35,000  Level FlightAware ADS-B (KDZJ)
Tue 03:41:30 PM 34.1216 -84.3206 191° South 445 512 35,000  Level FlightAware ADS-B (KDZJ)
Tue 03:42:10 PM 34.0422 -84.3392 191° South 445 512 35,000  Level FlightAware ADS-B (KDZJ)
Tue 03:43:27 PM 33.8981 -84.3742 191° South 455 524 35,000  Level Atlanta Center
Tue 03:44:27 PM 33.7792 -84.4011 191° South 449 517 35,000  Level Atlanta Center
Tue 03:45:27 PM 33.6539 -84.4306 191° South 449 517 35,000  Level Atlanta Center
Tue 03:46:27 PM 33.5181 -84.4375 182° South 449 517 35,000  Level Atlanta Center
Tue 03:47:27 PM 33.3867 -84.4344 179° South 461 531 35,000  Level Atlanta Center
Tue 03:48:27 PM 33.2614 -84.4314 179° South 461 531 35,000  Level Atlanta Center
Tue 03:49:27 PM 33.1342 -84.4308 180° South 456 525 35,000  Level Atlanta Center
Tue 03:50:27 PM 33.0067 -84.4303 180° South 456 525 35,000  Level Atlanta Center
Tue 03:51:27 PM 32.8772 -84.4297 180° South 456 525 35,000  Level Atlanta Center
Tue 03:52:27 PM 32.7667 -84.4217 176° South 456 525 35,000  Level Atlanta Center
Tue 03:53:27 PM 32.6394 -84.4161 178° South 456 525 35,000  Level Atlanta Center
Tue 03:54:27 PM 32.5100 -84.4133 179° South 461 531 35,000  Level Atlanta Center
Tue 03:55:27 PM 32.3828 -84.4128 180° South 461 531 35,000  Level Atlanta Center
Tue 03:56:27 PM 32.2533 -84.4097 179° South 461 531 35,000  Level Atlanta Center
Tue 03:59:42 PM 31.8172 -84.3986 179° South 463 533 35,000  Level Jacksonville Center
Tue 04:00:42 PM 31.6858 -84.3989 180° South 463 533 35,000  Level Jacksonville Center
Tue 04:06:14 PM 30.9508 -84.3816 180° South 484 557 35,000  Level FlightAware ADS-B (KONZ)
Tue 04:06:58 PM 30.8517 -84.3797 179° South 482 555 35,000  Level FlightAware ADS-B (KONZ)
Tue 04:07:54 PM 30.7274 -84.3768 179° South 483 556 35,000  Level FlightAware ADS-B (KONZ)
Tue 04:08:24 PM 30.6736 -84.3714 175° South 492 566 35,000  Level FlightAware ADS-B (KONZ)
Tue 04:08:57 PM 30.5905 -84.3542 170° South 503 579 35,000  Level FlightAware ADS-B (KONZ)
Tue 04:09:31 PM 30.5211 -84.3313 164° South 512 589 35,000  Level FlightAware ADS-B (KONZ)
Tue 04:09:45 PM 30.4773 -84.3127 160° South 516 594 35,000  Level FlightAware ADS-B (KONZ)
Tue 04:10:22 PM 30.3990 -84.2701 155° Southeast 521 600 35,000  Level FlightAware ADS-B (KONZ)
Tue 04:10:52 PM 30.3334 -84.2274 151° Southeast 521 600 35,000  Level FlightAware ADS-B (KONZ)
Tue 04:11:22 PM 30.2695 -84.1859 151° Southeast 519 597 35,000  Level FlightAware ADS-B (KONZ)
Tue 04:11:53 PM 30.2212 -84.1546 151° Southeast 519 597 35,000  Level FlightAware ADS-B (KONZ)
Tue 04:12:24 PM 30.1413 -84.1025 151° Southeast 520 598 35,000  Level FlightAware ADS-B (KONZ)
Tue 04:13:01 PM 30.0616 -84.0507 151° Southeast 521 600 35,000  Level FlightAware ADS-B (KONZ)
Tue 04:13:34 PM 29.9943 -84.0070 151° Southeast 522 601 35,000  Level FlightAware ADS-B (KONZ)
Tue 04:14:12 PM 29.9142 -83.9550 151° Southeast 520 598 35,000  Level FlightAware ADS-B (KONZ)
Tue 04:15:29 PM 29.7527 -83.8505 151° Southeast 519 597 35,000  Level FlightAware ADS-B (KONZ)
Tue 04:16:42 PM 29.6122 -83.7644 151° Southeast 523 602 35,000  Level Jacksonville Center
Tue 04:17:42 PM 29.4811 -83.6775 150° Southeast 529 609 35,000  Level Jacksonville Center
Tue 04:18:42 PM 29.3336 -83.5811 150° Southeast 541 623 35,000  Level Jacksonville Center
Tue 04:19:42 PM 29.1983 -83.4992 152° Southeast 541 623 35,000  Level Jacksonville Center
Tue 04:20:42 PM 29.0672 -83.4128 150° Southeast 541 623 35,000  Level Jacksonville Center
Tue 04:25:59 PM 28.3631 -82.9678 150° Southeast 544 626 35,000  Level FlightAware ADS-B
Tue 04:27:12 PM 28.2027 -82.8677 151° Southeast 542 624 35,000  Level FlightAware ADS-B
Tue 04:29:03 PM 27.9587 -82.7160 151° Southeast 543 625 35,000  Level FlightAware ADS-B
Tue 04:30:05 PM 27.8259 -82.6310 150° Southeast 546 628 35,000  Level FlightAware ADS-B
Tue 04:30:40 PM 27.7505 -82.5797 149° Southeast 547 629 35,000  Level FlightAware ADS-B
Tue 04:31:10 PM 27.6812 -82.5332 149° Southeast 548 631 35,000  Level FlightAware ADS-B
Tue 04:31:50 PM 27.5974 -82.4825 152° Southeast 546 628 35,000  Level FlightAware ADS-B
Tue 04:33:07 PM 27.4269 -82.3732 150° Southeast 545 627 35,000  Level FlightAware ADS-B
Tue 04:33:39 PM 27.3510 -82.3375 157° South 537 618 35,000  Level FlightAware ADS-B
Tue 04:34:12 PM 27.2737 -82.3027 158° South 538 619 35,000  Level FlightAware ADS-B
Tue 04:35:59 PM 27.0277 -82.1917 158° South 538 619 35,000  Level FlightAware ADS-B
Tue 04:38:49 PM 26.6380 -82.0172 158° South 534 615 35,000  Level FlightAware ADS-B
Tue 04:39:30 PM 26.5405 -81.9737 158° South 534 615 35,000  Level FlightAware ADS-B
Tue 04:40:20 PM 26.4275 -81.9234 158° South 535 616 35,000  Level FlightAware ADS-B
Tue 04:41:00 PM 26.3326 -81.8812 158° South 535 616 35,000  Level FlightAware ADS-B
Tue 04:41:41 PM 26.2545 -81.8465 158° South 535 616 35,000  Level FlightAware ADS-B
Tue 04:42:20 PM 26.1573 -81.8034 158° South 532 612 35,000  Level FlightAware ADS-B
Tue 04:42:51 PM 26.1437 -81.7974 158° South 531 611 35,000  Level FlightAware ADS-B
Tue 04:44:39 PM 25.6839 -81.5975 159° South 522 601 35,000  Level FlightAware ADS-B
Tue 04:45:22 PM 25.5792 -81.5709 167° South 516 594 35,000  Level FlightAware ADS-B
Tue 04:46:37 PM 25.5630 -81.5681 171° South 515 593 35,000  Level FlightAware ADS-B
Tue 04:48:06 PM 25.3594 -81.5631 171° South 510 587 35,000 -242 Level Miami Center
Tue 04:49:06 PM 25.2375 -81.5928 192° South 500 575 34,400 -750 Descending Miami Center
Tue 04:50:06 PM 25.1089 -81.6269 194° South 500 575 33,500 -1,000 Descending Miami Center
Tue 04:51:06 PM 24.9825 -81.6631 195° South 487 560 32,400 -1,100 Descending Miami Center
Tue 04:52:06 PM 24.8497 -81.7014 195° South 460 529 31,300 -1,000 Descending Miami Center
Tue 04:53:06 PM 24.7314 -81.7381 196° South 449 517 30,400 -4,650 Descending Miami Center
Tue 04:54:06 PM 24.6150 -81.7881 201° Southwest 449 517 22,000 -1,000 Descending Miami Center
Tue 04:55:06 PM 24.5125 -81.8525 210° Southwest 442 509 28,400 2,750 Climbing Miami Center
Tue 04:56:06 PM 24.4475 -81.9253 226° Southwest 398 458 27,500 -950 Descending Miami Center
Tue 04:57:06 PM 24.3819 -82.0092 229° Southwest 383 441 26,500 -1,000 Descending Miami Center
Tue 04:58:06 PM 24.3183 -82.0978 232° Southwest 378 435 25,500 -1,000 Descending Miami Center
Tue 04:59:06 PM 24.2528 -82.1839 230° Southwest 378 435 24,500 -1,000 Descending Miami Center
Tue 05:00:06 PM 24.1889 -82.2697 231° Southwest 378 435 23,500 -1,000 Descending Miami Center
Tue 05:01:06 PM 24.1233 -82.3533 229° Southwest 367 422 22,500 -750 Descending Miami Center
Tue 05:02:06 PM 24.0528 -82.4503 231° Southwest 362 417 22,000 -500 Descending Miami Center
Tue 05:04:00 PM 23.8499 -82.4952 173° South  Level FlightAware Approximate
Tue 05:11:00 PM 22.9891 -82.4091 180° South  Level Estimated
Tue 05:12:00 PM 22.9891 -82.4091 180° South  Level Estimated
Tue 05:13:00 PM 22.9891 -82.4091 180° South  Level Estimated
Tue 05:14:00 PM 22.9891 -82.4091 180° South  Level Estimated
Tue 05:15:00 PM 22.9891 -82.4091 180° South  Level Estimated
Tue 05:16:00 PM 22.9891 -82.4091 180° South  Level Estimated
Tue 05:17:00 PM 22.9891 -82.4091 180° South  Level Estimated
Tue 05:18:00 PM 22.9891 -82.4091 180° South  Level Estimated
Tue 05:19:00 PM 22.9891 -82.4091 180° South  Level Estimated
Tue 05:20:00 PM 22.9891 -82.4091 180° South  Level Estimated
Tue 05:21:00 PM 22.9891 -82.4091 180° South  Level Estimated
Tue 05:22:00 PM 22.9891 -82.4091 180° South  Level Estimated
Tue 05:23:00 PM 22.9891 -82.4091 180° South  Level Estimated
Tue 05:24:00 PM 22.9891 -82.4091 180° South  Level Estimated
Tue 05:25:00 PM 22.9891 -82.4091 180° South  Level Estimated
Tue 05:26:00 PM 22.9891 -82.4091 180° South  Level Estimated
Tue 05:27:00 PM 22.9891 -82.4091 180° South  Level Estimated
Tue 05:28:00 PM 22.9891 -82.4091 180° South  Level Estimated
Tue 05:29:00 PM 22.9891 -82.4091 180° South  Level Estimated
Tue 05:30:00 PM 22.9891 -82.4091 180° South  Level Estimated
Tue 05:31:00 PM 22.9891 -82.4091 180° South  Level Estimated
Tue 05:32:00 PM 22.9891 -82.4091 180° South  Level Estimated
Tue 05:33:00 PM 22.9891 -82.4091 180° South  Level Estimated

Login

Don't have an account? Register now (free) for customized features, flight alerts, and more!